Time;durP1;ratioP1;P1;durP2;ratioP2;P2;SDS_P1;SDS_P2;PMS_P1;PMS_P2;Temp;Humidity;BMP_temperature;BMP_pressure;BME280_temperature;BME280_humidity;BME280_pressure;Samples;Min_cycle;Max_cycle;Signal;HPM_P1;HPM_P2
2022/03/22 00:04:22;;;;;;;42.55;25.00;;;;;;;5.03;83.45;102886.03;10479045;28;20099;-75
2022/03/22 00:09:23;;;;;;;36.53;25.05;;;;;;;4.96;82.99;102897.44;10498950;28;20052;-74
2022/03/22 00:14:23;;;;;;;33.20;21.55;;;;;;;4.82;82.84;102892.50;10484224;28;20060;-75
2022/03/22 00:19:24;;;;;;;40.40;24.02;;;;;;;4.73;83.28;102891.56;10502150;28;20435;-75
2022/03/22 00:24:24;;;;;;;37.85;23.80;;;;;;;4.67;83.78;102900.53;10486078;28;20090;-75
2022/03/22 00:29:25;;;;;;;39.53;24.83;;;;;;;4.64;83.94;102895.03;10501627;28;20484;-75
2022/03/22 00:34:25;;;;;;;39.05;24.30;;;;;;;4.78;84.25;102900.75;10484487;28;20079;-75
2022/03/22 00:39:26;;;;;;;33.53;19.80;;;;;;;4.85;82.94;102901.56;10501777;28;20506;-75
2022/03/22 00:44:26;;;;;;;32.92;20.63;;;;;;;4.79;83.08;102900.91;10466767;28;20166;-75
2022/03/22 00:49:27;;;;;;;35.88;21.92;;;;;;;4.75;82.91;102908.19;10502200;28;20028;-74
2022/03/22 00:54:28;;;;;;;31.15;19.35;;;;;;;4.66;82.38;102911.69;10500662;28;20625;-75
2022/03/22 01:04:48;;;;;;;35.20;21.42;;;;;;;4.22;83.86;102908.84;10500598;28;20020;-75
2022/03/22 01:09:48;;;;;;;29.98;19.83;;;;;;;4.18;84.41;102909.28;10483337;28;20029;-75
2022/03/22 01:14:49;;;;;;;32.25;21.50;;;;;;;4.29;84.09;102906.91;10466355;28;20079;-75
2022/03/22 01:19:50;;;;;;;33.60;23.10;;;;;;;4.24;84.01;102909.00;10463833;28;20031;-75
2022/03/22 01:24:52;;;;;;;37.17;23.23;;;;;;;4.14;84.20;102901.00;10499923;28;20092;-74
2022/03/22 01:29:52;;;;;;;33.72;21.50;;;;;;;4.07;84.45;102910.72;10500792;28;20028;-75
2022/03/22 01:34:53;;;;;;;36.45;20.30;;;;;;;3.97;84.64;102905.28;10500182;28;20036;-75
2022/03/22 01:39:54;;;;;;;35.63;20.85;;;;;;;3.83;84.43;102906.41;10498794;28;20062;-75
2022/03/22 01:44:54;;;;;;;37.13;22.75;;;;;;;3.62;85.19;102903.34;10482550;28;20045;-75
2022/03/22 01:49:55;;;;;;;29.63;21.27;;;;;;;3.45;85.52;102903.19;10500655;28;20119;-75
2022/03/22 01:54:55;;;;;;;38.58;22.02;;;;;;;3.32;85.21;102900.91;10498723;28;20060;-76
2022/03/22 01:59:56;;;;;;;34.72;21.70;;;;;;;3.06;85.92;102894.72;10498004;28;20476;-76
2022/03/22 02:10:18;;;;;;;30.85;21.23;;;;;;;2.67;86.26;102901.53;10483219;28;20032;-76
2022/03/22 02:15:24;;;;;;;31.42;22.52;;;;;;;2.64;87.02;102897.84;10480775;28;20044;-76
2022/03/22 02:20:26;;;;;;;37.28;22.05;;;;;;;2.58;87.23;102899.75;10498049;28;20035;-75
2022/03/22 02:25:26;;;;;;;37.50;26.37;;;;;;;2.43;87.49;102901.53;10480086;28;20503;-76
2022/03/22 02:30:37;;;;;;;39.78;24.13;;;;;;;2.36;87.96;102893.81;10493845;28;20104;-76
2022/03/22 02:35:39;;;;;;;43.40;24.07;;;;;;;2.51;88.39;102897.22;10479404;28;20120;-76
2022/03/22 02:40:40;;;;;;;37.07;23.27;;;;;;;2.46;88.97;102891.53;10478852;28;20044;-75
2022/03/22 02:45:40;;;;;;;40.80;23.58;;;;;;;2.46;88.62;102903.53;10480793;28;20044;-75
2022/03/22 02:50:41;;;;;;;36.25;23.45;;;;;;;2.37;88.82;102894.72;10497494;28;20078;-76
2022/03/22 02:55:41;;;;;;;36.78;21.65;;;;;;;2.33;88.73;102896.06;10496894;28;20032;-76
2022/03/22 03:00:42;;;;;;;40.55;22.85;;;;;;;2.26;89.14;102898.69;10496061;28;20119;-76
2022/03/22 03:05:42;;;;;;;33.55;22.42;;;;;;;2.19;88.71;102897.06;10479151;28;20029;-76
2022/03/22 03:10:46;;;;;;;37.10;23.70;;;;;;;2.08;88.59;102900.06;10495728;28;20059;-76
2022/03/22 03:15:47;;;;;;;41.55;24.95;;;;;;;1.94;88.82;102898.50;10477353;28;20057;-76
2022/03/22 03:20:48;;;;;;;39.15;23.40;;;;;;;1.86;89.45;102901.13;10477710;28;20111;-76
2022/03/22 03:25:48;;;;;;;45.78;27.13;;;;;;;1.76;89.07;102900.81;10495154;28;20112;-76
2022/03/22 03:30:48;;;;;;;39.97;23.58;;;;;;;1.69;89.54;102904.31;10478207;28;20119;-76
2022/03/22 03:35:49;;;;;;;42.55;24.90;;;;;;;1.72;90.00;102909.84;10495547;28;20038;-76
2022/03/22 03:51:29;;;;;;;41.72;26.83;;;;;;;1.50;89.90;102924.50;10492770;28;20434;-75
2022/03/22 03:56:29;;;;;;;36.20;24.63;;;;;;;1.48;90.13;102918.25;10496224;28;20033;-76
2022/03/22 04:01:32;;;;;;;40.33;25.50;;;;;;;1.61;90.43;102928.31;10495580;28;20029;-76
2022/03/22 04:06:32;;;;;;;56.08;27.95;;;;;;;1.67;90.80;102939.38;10494148;28;20036;-75
2022/03/22 04:11:33;;;;;;;36.95;22.95;;;;;;;1.63;90.24;102932.00;10494312;28;20139;-75
2022/03/22 04:16:34;;;;;;;40.72;26.35;;;;;;;1.40;89.31;102937.06;10476617;28;20075;-76
2022/03/22 04:21:34;;;;;;;41.00;23.88;;;;;;;1.36;89.76;102938.34;10476410;28;20024;-76
2022/03/22 04:26:36;;;;;;;43.30;29.02;;;;;;;1.42;90.17;102938.16;10493288;28;20028;-75
2022/03/22 04:36:56;;;;;;;43.75;27.60;;;;;;;1.28;90.45;102933.94;10493800;28;20476;-75
2022/03/22 04:41:57;;;;;;;43.42;26.48;;;;;;;1.27;90.88;102934.69;10495428;28;20108;-76
2022/03/22 04:46:58;;;;;;;43.30;26.30;;;;;;;1.20;90.27;102933.03;10492631;28;20032;-76
2022/03/22 04:57:17;;;;;;;40.28;25.42;;;;;;;1.08;89.75;102942.81;10485325;28;20028;-76
2022/03/22 05:02:17;;;;;;;43.20;29.15;;;;;;;0.92;90.38;102944.28;10500165;28;20531;-75
2022/03/22 05:07:18;;;;;;;43.05;25.75;;;;;;;0.84;90.47;102946.88;10498907;28;20055;-75
2022/03/22 05:12:19;;;;;;;38.60;25.60;;;;;;;0.87;90.42;102951.50;10485294;28;20056;-75
2022/03/22 05:17:21;;;;;;;40.42;25.63;;;;;;;0.93;90.52;102953.88;10486882;28;20733;-76
2022/03/22 05:22:22;;;;;;;44.92;29.08;;;;;;;1.00;91.04;102962.53;10513473;28;20032;-76
2022/03/22 05:27:25;;;;;;;47.47;28.05;;;;;;;1.02;91.31;102958.50;10498703;28;20495;-76
2022/03/22 05:32:25;;;;;;;52.78;27.85;;;;;;;0.93;90.73;102966.75;10497313;28;20067;-75
2022/03/22 05:37:26;;;;;;;51.53;27.88;;;;;;;0.87;90.99;102966.97;10496553;28;20563;-75
2022/03/22 05:42:26;;;;;;;47.85;27.05;;;;;;;0.77;91.31;102972.66;10480603;28;20036;-76
2022/03/22 05:47:27;;;;;;;44.05;28.77;;;;;;;0.80;91.85;102985.91;10497324;28;20123;-76
2022/03/22 05:52:28;;;;;;;46.20;27.58;;;;;;;0.85;91.60;102984.81;10498726;28;20068;-76
2022/03/22 05:57:29;;;;;;;47.40;27.92;;;;;;;0.93;91.74;102979.66;10496850;28;20103;-75
2022/03/22 06:02:30;;;;;;;41.35;27.27;;;;;;;1.19;92.10;102979.28;10496719;28;20081;-75
2022/03/22 06:07:30;;;;;;;40.90;28.13;;;;;;;1.50;91.20;102978.69;10477743;28;20031;-75
2022/03/22 06:12:39;;;;;;;38.88;26.70;;;;;;;1.78;90.82;102981.00;10495332;28;20111;-75
2022/03/22 06:17:41;;;;;;;42.17;26.38;;;;;;;2.16;90.91;102982.91;10478224;28;20433;-75
2022/03/22 06:22:42;;;;;;;39.28;24.92;;;;;;;2.81;90.68;102986.75;10477493;28;20044;-74
2022/03/22 06:27:44;;;;;;;37.40;22.17;;;;;;;3.89;87.47;102983.88;10479648;28;20495;-74
2022/03/22 06:32:45;;;;;;;30.38;18.48;;;;;;;4.82;82.59;102980.72;10478147;28;20111;-75
2022/03/22 06:37:46;;;;;;;27.63;19.27;;;;;;;5.75;79.41;102987.63;10495345;28;20040;-75
2022/03/22 06:42:47;;;;;;;27.88;16.00;;;;;;;6.93;75.94;102983.56;10461007;28;20029;-75
2022/03/22 06:47:48;;;;;;;25.92;16.38;;;;;;;8.27;69.28;102976.00;10423242;28;20037;-75
2022/03/22 06:52:49;;;;;;;18.33;11.70;;;;;;;9.36;65.84;102982.94;10413372;28;20049;-76
2022/03/22 06:57:51;;;;;;;22.15;14.85;;;;;;;10.44;62.13;102978.00;10413693;28;20064;-76
2022/03/22 07:02:51;;;;;;;21.30;15.60;;;;;;;11.43;58.20;102980.63;10409559;28;20033;-76
2022/03/22 07:07:52;;;;;;;22.98;17.17;;;;;;;11.57;57.70;102986.97;10410535;28;20056;-75
2022/03/22 07:12:56;;;;;;;24.40;14.65;;;;;;;11.96;56.61;102984.63;10410161;28;20545;-76
2022/03/22 07:17:58;;;;;;;19.50;13.68;;;;;;;13.20;53.08;102987.50;10395260;28;20507;-76
2022/03/22 07:22:59;;;;;;;32.50;16.17;;;;;;;14.44;44.61;102988.03;10411041;28;20080;-76
2022/03/22 07:28:00;;;;;;;21.73;14.93;;;;;;;14.91;43.94;102991.94;10412994;28;20033;-76
2022/03/22 07:33:01;;;;;;;29.95;17.38;;;;;;;15.48;40.36;102985.75;10409687;28;20033;-76
2022/03/22 07:38:02;;;;;;;22.75;16.98;;;;;;;16.03;39.46;102987.28;10412302;28;20904;-77
2022/03/22 07:43:02;;;;;;;25.02;16.42;;;;;;;16.35;38.84;102985.63;10410905;28;20037;-77
2022/03/22 07:48:04;;;;;;;27.90;17.90;;;;;;;16.37;37.59;102992.78;10478158;28;20094;-76
2022/03/22 07:53:07;;;;;;;28.02;17.20;;;;;;;16.76;39.98;102989.72;10476880;28;20123;-75
2022/03/22 07:58:08;;;;;;;25.80;18.52;;;;;;;16.93;35.75;102993.28;10493682;28;20035;-75
2022/03/22 08:03:10;;;;;;;29.05;18.10;;;;;;;17.06;36.93;102997.56;10460112;28;20056;-76
2022/03/22 08:08:11;;;;;;;25.48;18.95;;;;;;;16.97;36.06;102997.94;10457886;28;20036;-76
2022/03/22 08:13:12;;;;;;;21.92;17.52;;;;;;;17.14;35.96;102990.03;10475849;28;20033;-76
2022/03/22 08:18:16;;;;;;;28.17;19.53;;;;;;;17.38;35.63;102995.75;10472740;28;20037;-76
2022/03/22 08:23:17;;;;;;;24.65;16.85;;;;;;;18.01;35.05;102991.94;10478521;28;20531;-77
2022/03/22 08:28:18;;;;;;;25.55;19.27;;;;;;;17.21;35.95;102994.81;10471804;28;20028;-77
2022/03/22 08:33:18;;;;;;;29.02;19.60;;;;;;;15.89;38.54;103000.59;10485825;28;20542;-77
2022/03/22 08:38:20;;;;;;;25.25;19.00;;;;;;;15.24;40.77;102996.63;10525011;28;20048;-77
2022/03/22 08:43:20;;;;;;;30.83;20.43;;;;;;;15.18;40.55;102996.22;10507643;28;20020;-78
2022/03/22 08:48:21;;;;;;;27.02;16.80;;;;;;;15.67;40.20;102993.97;10446334;28;20062;-78
2022/03/22 08:53:23;;;;;;;24.52;17.13;;;;;;;15.59;41.29;102992.59;10442198;28;20098;-78
2022/03/22 08:58:23;;;;;;;31.67;18.02;;;;;;;17.19;38.26;102985.88;10459824;28;20032;-78
2022/03/22 09:03:26;;;;;;;24.15;16.88;;;;;;;18.83;34.46;102984.41;10460065;28;20392;-77
2022/03/22 09:08:27;;;;;;;25.88;18.70;;;;;;;20.61;32.16;102976.19;10458552;28;20055;-77
2022/03/22 09:13:30;;;;;;;32.38;18.63;;;;;;;21.07;33.95;102982.41;10441557;28;20080;-76
2022/03/22 09:18:30;;;;;;;29.80;19.98;;;;;;;21.95;30.47;102973.13;10458441;28;20040;-77
2022/03/22 09:23:31;;;;;;;28.07;18.43;;;;;;;23.55;28.30;102967.28;10457972;28;20079;-77
2022/03/22 09:28:32;;;;;;;29.23;19.57;;;;;;;25.06;26.31;102966.44;10457551;28;20104;-77
2022/03/22 09:33:32;;;;;;;24.53;20.63;;;;;;;24.81;27.30;102963.25;10458758;28;20033;-78
2022/03/22 09:38:33;;;;;;;29.90;20.40;;;;;;;25.85;25.88;102954.53;10456865;28;20386;-79
2022/03/22 09:43:34;;;;;;;24.30;19.70;;;;;;;25.84;26.09;102954.50;10456218;28;20063;-77
2022/03/22 09:48:34;;;;;;;30.93;19.73;;;;;;;27.60;23.99;102947.03;10439580;28;20084;-77
2022/03/22 09:53:35;;;;;;;25.07;18.83;;;;;;;27.47;22.37;102946.88;10439260;28;20065;-77
2022/03/22 09:58:35;;;;;;;31.53;20.17;;;;;;;26.78;24.06;102952.34;10417385;28;20107;-76
2022/03/22 10:03:37;;;;;;;40.87;28.87;;;;;;;26.91;23.58;102938.22;10404948;28;20057;-76
2022/03/22 10:08:37;;;;;;;31.23;20.48;;;;;;;26.97;23.85;102937.41;10388297;28;20033;-76
2022/03/22 10:13:53;;;;;;;31.50;20.13;;;;;;;27.59;23.42;102940.75;10401205;28;20497;-77
2022/03/22 10:18:54;;;;;;;27.25;21.48;;;;;;;27.08;23.29;102927.66;10372688;28;20038;-77
2022/03/22 10:23:54;;;;;;;31.30;22.03;;;;;;;27.10;23.66;102927.66;10356268;28;20065;-76
2022/03/22 10:28:55;;;;;;;26.80;19.23;;;;;;;28.52;22.86;102924.38;10358238;28;20045;-76
2022/03/22 10:33:55;;;;;;;27.60;22.23;;;;;;;29.50;21.25;102916.63;10372397;28;20108;-75
2022/03/22 10:38:59;;;;;;;25.80;20.83;;;;;;;28.95;19.67;102915.59;10371524;28;20076;-77
2022/03/22 10:44:07;;;;;;;29.30;23.17;;;;;;;28.83;21.88;102916.44;10376460;28;20096;-76
2022/03/22 10:49:12;;;;;;;27.83;20.08;;;;;;;29.02;20.76;102915.59;10396773;28;20121;-77
2022/03/22 10:54:17;;;;;;;30.40;22.00;;;;;;;27.66;22.62;102917.50;10377352;28;20037;-75
2022/03/22 10:59:23;;;;;;;30.27;21.35;;;;;;;27.85;23.49;102914.06;10412733;28;20032;-75
2022/03/22 11:04:25;;;;;;;28.55;19.00;;;;;;;28.07;20.71;102910.63;10407746;28;20030;-76
2022/03/22 11:09:25;;;;;;;27.60;19.15;;;;;;;28.03;21.85;102907.00;10413909;28;20032;-77
2022/03/22 11:14:27;;;;;;;23.80;16.13;;;;;;;28.22;19.22;102907.16;10408372;28;20045;-76
2022/03/22 11:19:28;;;;;;;26.30;16.83;;;;;;;27.14;21.75;102899.06;10411928;28;20389;-76
2022/03/22 11:24:28;;;;;;;24.40;18.27;;;;;;;29.08;19.34;102887.78;10393636;28;20028;-76
2022/03/22 11:29:29;;;;;;;23.93;15.00;;;;;;;28.50;18.04;102883.97;10393512;28;20029;-76
2022/03/22 11:34:29;;;;;;;27.97;17.63;;;;;;;26.90;20.14;102888.06;10394423;28;20148;-76
2022/03/22 11:44:57;;;;;;;34.30;18.98;;;;;;;26.47;23.13;102877.69;10425340;28;20510;-76
2022/03/22 11:50:03;;;;;;;21.10;15.63;;;;;;;26.78;22.56;102871.75;10492825;28;20040;-76
2022/03/22 11:55:27;;;;;;;23.58;13.73;;;;;;;27.24;19.16;102872.28;10495609;28;20035;-76
2022/03/22 12:00:47;;;;;;;21.83;12.00;;;;;;;27.89;19.87;102874.66;10476163;28;20104;-76
2022/03/22 12:05:48;;;;;;;23.13;13.05;;;;;;;27.22;19.90;102878.53;10485619;28;20024;-76
2022/03/22 12:10:49;;;;;;;21.53;13.50;;;;;;;28.07;22.21;102863.06;10486315;28;20017;-76
2022/03/22 12:15:57;;;;;;;22.92;14.40;;;;;;;29.55;17.42;102855.47;10503072;28;20539;-76
2022/03/22 12:20:57;;;;;;;18.05;12.98;;;;;;;28.03;19.17;102855.88;10467839;28;20048;-77
2022/03/22 12:25:58;;;;;;;25.23;13.53;;;;;;;27.41;18.80;102845.56;10467367;28;20492;-77
2022/03/22 12:30:58;;;;;;;20.63;12.87;;;;;;;27.35;19.15;102853.59;10483957;28;20024;-76
2022/03/22 12:36:01;;;;;;;17.70;11.87;;;;;;;27.39;18.47;102849.13;10502299;28;20128;-76
2022/03/22 12:41:02;;;;;;;15.75;9.05;;;;;;;27.92;18.58;102852.22;10467299;28;20033;-76
2022/03/22 12:46:02;;;;;;;24.30;10.53;;;;;;;26.51;18.25;102835.66;10501531;28;20056;-77
2022/03/22 12:51:03;;;;;;;18.73;10.83;;;;;;;26.58;21.31;102826.78;10503155;28;20039;-77
2022/03/22 12:56:17;;;;;;;11.85;9.38;;;;;;;28.13;17.44;102819.19;10482740;28;20058;-76
2022/03/22 13:01:19;;;;;;;14.95;9.07;;;;;;;27.52;19.34;102821.47;10483112;28;20033;-76
2022/03/22 13:06:19;;;;;;;18.25;10.18;;;;;;;28.32;17.37;102806.72;10482685;28;20021;-76
2022/03/22 13:11:32;;;;;;;13.87;9.03;;;;;;;27.94;19.56;102816.38;10483448;28;20024;-76
2022/03/22 13:16:35;;;;;;;13.35;8.57;;;;;;;27.72;18.00;102811.75;10499308;28;20488;-76
2022/03/22 13:21:39;;;;;;;21.27;12.95;;;;;;;27.05;18.92;102809.41;10500020;28;20507;-76
2022/03/22 13:26:54;;;;;;;21.13;11.85;;;;;;;26.15;20.68;102811.06;10482457;28;20472;-77
2022/03/22 13:31:59;;;;;;;21.08;12.85;;;;;;;25.76;20.38;102813.16;10500755;28;20032;-77
2022/03/22 13:37:11;;;;;;;17.60;9.55;;;;;;;26.64;19.48;102791.06;10481257;28;20024;-77
2022/03/22 13:42:14;;;;;;;20.00;9.40;;;;;;;26.94;21.48;102798.56;10481754;28;20035;-77
2022/03/22 13:47:26;;;;;;;13.93;8.88;;;;;;;26.89;18.61;102789.53;10466582;28;20055;-76
2022/03/22 13:52:33;;;;;;;18.42;9.63;;;;;;;27.14;19.15;102789.78;10500412;28;20131;-76
2022/03/22 13:57:35;;;;;;;20.67;11.50;;;;;;;26.12;18.73;102785.91;10498083;28;20035;-77
2022/03/22 14:02:35;;;;;;;16.70;10.77;;;;;;;25.62;19.46;102783.47;10480972;28;20052;-77
2022/03/22 14:07:36;;;;;;;17.03;10.77;;;;;;;25.90;18.99;102778.50;10464339;28;20027;-77
2022/03/22 14:12:36;;;;;;;25.50;12.20;;;;;;;25.62;19.66;102772.75;10497602;28;20123;-77
2022/03/22 14:17:37;;;;;;;18.20;10.77;;;;;;;24.77;19.90;102780.22;10479918;28;20063;-76
2022/03/22 14:22:37;;;;;;;15.23;9.60;;;;;;;25.28;19.86;102771.25;10463582;28;20048;-76
2022/03/22 14:27:38;;;;;;;14.97;9.30;;;;;;;25.33;19.12;102765.13;10496358;28;20060;-76
2022/03/22 14:32:38;;;;;;;13.83;10.03;;;;;;;24.45;20.48;102768.84;10478971;28;20383;-77
2022/03/22 14:37:41;;;;;;;16.37;10.80;;;;;;;24.04;20.52;102769.81;10496594;28;20083;-76
2022/03/22 14:42:41;;;;;;;19.30;11.95;;;;;;;24.72;20.40;102767.56;10480255;28;20043;-76
2022/03/22 14:47:42;;;;;;;20.07;12.80;;;;;;;25.13;20.02;102767.44;10478375;28;20068;-77
2022/03/22 15:03:27;;;;;;;18.48;14.60;;;;;;;24.34;20.34;102750.81;10481799;28;20020;-76
2022/03/22 15:08:28;;;;;;;23.25;15.15;;;;;;;23.83;20.70;102748.81;10495240;28;20035;-77
2022/03/22 15:13:28;;;;;;;22.27;15.27;;;;;;;23.54;21.45;102743.69;10461041;28;20021;-76
2022/03/22 15:18:29;;;;;;;18.23;13.13;;;;;;;23.26;21.72;102741.28;10478172;28;20070;-76
2022/03/22 15:23:30;;;;;;;22.27;15.80;;;;;;;23.22;22.44;102733.09;10477135;28;20060;-77
2022/03/22 15:28:30;;;;;;;22.23;14.80;;;;;;;23.20;22.36;102737.50;10477409;28;20024;-76
2022/03/22 15:33:31;;;;;;;23.17;15.83;;;;;;;22.72;22.39;102729.16;10495269;28;20033;-76
2022/03/22 15:38:31;;;;;;;21.87;16.13;;;;;;;22.18;22.51;102717.00;10477083;28;20028;-77
2022/03/22 15:43:32;;;;;;;23.10;13.93;;;;;;;21.42;24.14;102718.25;10444125;28;20024;-76
2022/03/22 15:48:32;;;;;;;25.67;15.82;;;;;;;19.89;25.66;102719.03;10494695;28;20131;-76
2022/03/22 15:53:33;;;;;;;26.98;16.77;;;;;;;19.26;26.82;102715.66;10478292;28;20060;-76
2022/03/22 15:58:34;;;;;;;24.48;17.02;;;;;;;18.68;28.09;102717.63;10481179;28;20056;-75
2022/03/22 16:03:34;;;;;;;24.40;16.42;;;;;;;18.47;27.61;102707.00;10468675;28;20025;-76
2022/03/22 16:08:35;;;;;;;33.33;15.57;;;;;;;18.25;29.82;102710.41;10452177;28;20112;-76
2022/03/22 16:13:36;;;;;;;23.77;15.07;;;;;;;17.72;28.93;102706.25;10474502;28;20756;-76
2022/03/22 16:18:36;;;;;;;21.48;15.00;;;;;;;17.49;29.95;102702.47;10492977;28;20047;-77
2022/03/22 16:23:37;;;;;;;20.92;15.90;;;;;;;17.13;30.17;102699.84;10516713;28;20029;-75
2022/03/22 16:28:37;;;;;;;25.80;15.63;;;;;;;16.95;30.70;102695.41;10491649;28;20025;-78
2022/03/22 16:44:16;;;;;;;33.92;13.55;;;;;;;16.17;32.43;102700.16;10465402;28;20561;-76
2022/03/22 16:49:18;;;;;;;19.73;12.70;;;;;;;16.08;32.34;102704.13;10475000;28;20123;-76
2022/03/22 16:54:18;;;;;;;;;;;;;;;15.91;32.28;102704.94;10453832;28;20102;-76
2022/03/22 16:59:21;;;;;;;27.92;15.07;;;;;;;15.57;32.86;102707.47;10473652;28;20066;-76
2022/03/22 17:04:22;;;;;;;21.70;11.63;;;;;;;15.57;34.25;102701.31;10461500;28;20472;-77
2022/03/22 17:09:23;;;;;;;17.33;10.32;;;;;;;15.12;35.11;102709.28;10451756;28;20086;-75
2022/03/22 17:14:24;;;;;;;25.37;12.23;;;;;;;14.52;36.13;102709.22;10467667;28;20504;-76
2022/03/22 17:19:25;;;;;;;25.40;11.02;;;;;;;13.95;39.06;102718.06;10476047;28;20036;-77
2022/03/22 17:24:26;;;;;;;19.42;10.63;;;;;;;13.36;42.60;102719.53;10436618;28;20492;-76
2022/03/22 17:29:27;;;;;;;18.08;11.15;;;;;;;12.89;43.98;102725.16;10459315;28;20063;-76
2022/03/22 17:34:27;;;;;;;20.42;9.57;;;;;;;12.68;42.09;102725.50;10478327;28;20055;-76
2022/03/22 17:39:28;;;;;;;17.17;9.25;;;;;;;12.22;44.57;102735.44;10465034;28;20043;-76
2022/03/22 17:44:29;;;;;;;21.65;13.23;;;;;;;11.64;45.85;102741.78;10477122;28;20472;-74
2022/03/22 17:49:29;;;;;;;21.55;11.90;;;;;;;11.12;47.64;102749.31;10497091;28;20029;-75
2022/03/22 17:54:30;;;;;;;23.05;11.57;;;;;;;10.77;48.96;102748.44;10450052;28;20060;-75
2022/03/22 17:59:30;;;;;;;19.85;9.40;;;;;;;10.41;47.88;102752.63;10473127;28;20388;-74
2022/03/22 18:04:31;;;;;;;17.35;10.10;;;;;;;10.11;48.70;102763.41;10495680;28;20047;-75
2022/03/22 18:09:31;;;;;;;16.77;10.15;;;;;;;10.02;47.57;102757.44;10475322;28;20036;-75
2022/03/22 18:14:34;;;;;;;24.00;11.10;;;;;;;9.94;47.40;102762.03;10497132;28;20035;-75
2022/03/22 18:19:39;;;;;;;20.58;11.30;;;;;;;9.68;47.99;102759.94;10478742;28;20501;-75
2022/03/22 18:24:40;;;;;;;15.32;9.25;;;;;;;9.31;49.90;102765.63;10478331;28;20044;-76
2022/03/22 18:29:40;;;;;;;16.58;9.70;;;;;;;8.87;51.00;102770.66;10497121;28;20107;-76
2022/03/22 18:34:41;;;;;;;21.10;10.98;;;;;;;8.64;51.80;102769.59;10480448;28;20028;-75
2022/03/22 18:39:42;;;;;;;17.73;9.43;;;;;;;8.41;52.22;102775.41;10461670;28;20029;-75
2022/03/22 18:44:43;;;;;;;20.50;11.43;;;;;;;8.10;55.75;102784.06;10495481;28;20071;-76
2022/03/22 18:49:45;;;;;;;20.40;13.85;;;;;;;7.71;55.83;102795.34;10462867;28;20047;-76
2022/03/22 18:54:45;;;;;;;21.60;10.13;;;;;;;7.23;57.00;102793.63;10461638;28;20115;-77
2022/03/22 18:59:46;;;;;;;17.88;10.32;;;;;;;6.99;58.78;102801.91;10478361;28;20073;-76
2022/03/22 19:04:46;;;;;;;21.88;11.85;;;;;;;6.78;59.51;102795.63;10461128;28;20484;-76
2022/03/22 19:09:47;;;;;;;19.73;11.02;;;;;;;6.53;60.47;102800.19;10496937;28;20055;-75
2022/03/22 19:14:47;;;;;;;21.08;11.20;;;;;;;6.30;60.40;102809.31;10476708;28;20107;-75
2022/03/22 19:19:48;;;;;;;19.98;11.13;;;;;;;6.15;61.29;102813.97;10461260;28;20093;-75
2022/03/22 19:24:50;;;;;;;16.73;11.88;;;;;;;6.10;62.83;102810.88;10495660;28;20438;-75
2022/03/22 19:29:50;;;;;;;17.42;11.15;;;;;;;6.01;64.47;102804.78;10495462;28;20432;-76
2022/03/22 19:34:53;;;;;;;19.50;10.82;;;;;;;5.87;64.11;102806.94;10494030;28;20111;-75
2022/03/22 19:39:54;;;;;;;23.63;12.02;;;;;;;5.73;65.35;102817.66;10477731;28;20119;-75
2022/03/22 19:44:54;;;;;;;18.58;11.18;;;;;;;5.62;64.93;102813.06;10494618;28;20149;-76
2022/03/22 19:49:55;;;;;;;20.55;12.27;;;;;;;5.47;65.59;102823.78;10459744;28;20555;-75
2022/03/22 19:54:55;;;;;;;21.42;14.85;;;;;;;5.38;65.64;102821.19;10493828;28;20063;-75
2022/03/22 19:59:56;;;;;;;24.48;15.02;;;;;;;5.30;65.96;102827.31;10492574;28;20376;-75
2022/03/22 20:04:57;;;;;;;31.00;17.08;;;;;;;5.10;66.34;102826.22;10458550;28;20593;-76
2022/03/22 20:09:59;;;;;;;22.30;15.50;;;;;;;4.99;66.16;102827.69;10491388;28;20037;-81
2022/03/22 20:15:00;;;;;;;25.30;15.05;;;;;;;4.75;67.59;102832.97;10474642;28;20035;-78
2022/03/22 20:20:00;;;;;;;25.85;15.43;;;;;;;4.54;68.12;102838.72;10493353;28;20036;-75
2022/03/22 20:25:01;;;;;;;25.13;15.55;;;;;;;4.39;69.06;102845.78;10479675;28;20090;-75
2022/03/22 20:30:03;;;;;;;29.27;15.65;;;;;;;4.19;68.94;102841.13;10497114;28;20056;-76
2022/03/22 20:35:04;;;;;;;25.45;13.55;;;;;;;4.25;70.68;102841.78;10484414;28;20079;-75
2022/03/22 20:40:06;;;;;;;33.60;15.57;;;;;;;4.29;70.80;102842.09;10482009;28;20029;-74
2022/03/22 20:45:10;;;;;;;25.47;14.63;;;;;;;4.29;70.75;102839.50;10443922;28;20037;-75
2022/03/22 20:50:10;;;;;;;30.23;17.48;;;;;;;4.10;70.96;102837.56;10427261;28;21117;-73
2022/03/22 20:55:11;;;;;;;26.10;16.25;;;;;;;4.11;70.94;102835.13;10483746;28;20119;-75
2022/03/22 21:00:12;;;;;;;32.80;17.75;;;;;;;3.98;70.72;102834.59;10467698;28;20132;-75
2022/03/22 21:05:13;;;;;;;24.15;15.70;;;;;;;3.80;71.07;102828.38;10482031;28;20040;-76
2022/03/22 21:10:14;;;;;;;27.25;16.63;;;;;;;3.75;71.41;102843.41;10502918;28;20051;-75
2022/03/22 21:15:14;;;;;;;29.45;17.48;;;;;;;3.98;71.75;102842.34;10466846;28;20036;-76
2022/03/22 21:20:15;;;;;;;32.78;19.13;;;;;;;4.25;68.98;102843.44;10484129;28;20115;-76
2022/03/22 21:25:19;;;;;;;27.65;15.25;;;;;;;4.30;68.43;102841.34;10481988;28;20037;-76
2022/03/22 21:30:20;;;;;;;31.73;15.95;;;;;;;4.07;68.53;102832.06;10482925;28;20059;-75
2022/03/22 21:35:21;;;;;;;32.13;15.68;;;;;;;3.86;69.43;102833.28;10480502;28;20048;-75
2022/03/22 21:40:22;;;;;;;34.87;17.30;;;;;;;3.86;71.96;102833.28;10482720;28;20028;-75
2022/03/22 21:45:25;;;;;;;32.20;18.05;;;;;;;3.81;71.27;102838.00;10481367;28;20060;-75
2022/03/22 21:50:26;;;;;;;34.10;17.33;;;;;;;3.66;71.91;102837.25;10500872;28;20041;-75
2022/03/22 21:55:26;;;;;;;30.73;17.70;;;;;;;3.57;71.96;102837.19;10480047;28;20032;-75
2022/03/22 22:00:27;;;;;;;28.25;17.13;;;;;;;3.54;73.21;102839.44;10449173;28;20384;-75
2022/03/22 22:05:27;;;;;;;31.13;16.60;;;;;;;3.50;73.36;102832.09;10499020;28;20116;-75
2022/03/22 22:10:28;;;;;;;37.28;19.10;;;;;;;3.41;73.84;102832.00;10497825;28;20048;-76
2022/03/22 22:15:30;;;;;;;29.88;18.35;;;;;;;3.20;74.75;102839.28;10463096;28;20113;-74
2022/03/22 22:20:31;;;;;;;39.72;18.40;;;;;;;3.03;74.62;102837.47;10466377;28;20029;-74
2022/03/22 22:25:35;;;;;;;25.73;16.10;;;;;;;2.85;75.26;102830.25;10479298;28;20025;-74
2022/03/22 22:30:36;;;;;;;32.08;16.45;;;;;;;2.71;75.26;102828.72;10481129;28;20059;-74
2022/03/22 22:35:36;;;;;;;27.73;19.35;;;;;;;2.96;75.90;102824.59;10496843;28;20568;-74
2022/03/22 22:40:36;;;;;;;33.22;18.17;;;;;;;2.87;74.52;102831.34;10481049;28;20076;-74
2022/03/22 22:45:37;;;;;;;31.73;19.58;;;;;;;2.66;73.81;102825.63;10479253;28;20052;-74
2022/03/22 22:50:38;;;;;;;32.83;21.50;;;;;;;2.61;73.22;102829.38;10479613;28;20040;-74
2022/03/22 22:55:40;;;;;;;35.35;19.33;;;;;;;2.38;74.73;102839.72;10478785;28;20123;-74
2022/03/22 23:00:57;;;;;;;31.00;20.45;;;;;;;2.33;76.06;102834.94;10478307;28;20377;-74
2022/03/22 23:05:58;;;;;;;35.05;18.75;;;;;;;2.53;77.39;102838.84;10448434;28;20032;-74
2022/03/22 23:10:59;;;;;;;32.83;18.43;;;;;;;2.57;75.58;102833.25;10461569;28;20039;-74
2022/03/22 23:16:00;;;;;;;27.08;14.85;;;;;;;2.70;72.79;102830.41;10495901;28;20469;-74
2022/03/22 23:21:01;;;;;;;24.15;15.23;;;;;;;2.54;73.72;102834.59;10495249;28;20476;-74
2022/03/22 23:26:01;;;;;;;27.05;13.85;;;;;;;2.52;71.89;102831.84;10477387;28;20101;-74
2022/03/22 23:31:02;;;;;;;29.02;16.15;;;;;;;2.49;72.00;102836.66;10497586;28;20531;-74
2022/03/22 23:36:03;;;;;;;34.17;18.58;;;;;;;2.45;73.28;102832.84;10476954;28;20117;-74
2022/03/22 23:41:03;;;;;;;32.80;18.17;;;;;;;2.30;74.52;102833.69;10477301;28;20502;-74
2022/03/22 23:46:04;;;;;;;30.20;18.25;;;;;;;1.89;75.26;102828.22;10494820;28;20470;-74